Reynolds, Georgia
Current Conditions -  °F | °C
As of 12:15 PM on Friday 19 Dec 2014 (Local Time) from KPXE Reporting Station
Clear Clear  
Wind Chill: 59°   Ceiling: Unl
Heat Index: 59°   Visibility: 10mi
Dew Point: 35°   Wind: 0mph
Humidity: 41%   Direction: NA
Pressure: 30.18"   Gusts: NA
Location:  32.56°N, 84.1°W
Report Text: KPXE 191715Z AUTO 00000KT 10SM CLR 15/02 A3018 RMK AO2 T01500019
Loading
Personal Weather Stations






























Interactive Weather Map New forecast layout! Learn more

10-Day Weather Forecast

Advertisements
Track Severe Weather on mobile